windsock image

Welcome to Bigfield Strip.

anemometer image

 Help for dials.  
Local Met:

10 Min average:  
94 ° / 1.7 kts (0.0)
87° / 1.3

13.2°C C
Dew Point:  
7.2°C C
1032.0 mb mb
BigField Strip. This image updates approximately every minute, it can have a two minute delay.  

67 %
Sunrise:   06:02z
Sunset:   17:44z
   More met info, trends, radar, history etc. available here   

LUTON Metar   EGGW 301750Z 07008KT CAVOK 13/05 Q1033
  TAF   2015/09/30 18:15 TAF EGGW 301656Z 3018/0118 06008KT 9999 FEW030 PROB30 0103/0109 8000
BENSON Metar   EGUB 301750Z 06009KT CAVOK 14/04 Q1031 BLU NOSIG
  TAF   2015/09/30 18:06 TAF TAF EGUB 301655Z 3018/0101 06012KT CAVOK
Big Field view 1 icon   Big Field view 2 icon   Big Field view 3 icon   Chart AL3a in PDF icon   Chart AL3a in Word icon

This information is provided by the Airstrip unofficial weather station, DO NOT depend on the data provided here for any purpose.
This page is updated for latest Metars & TAF's every 5 minutes. Refresh the browser to check for the lastest.
Page designed for a minimum browser size of 1024x768.
© Copyright 2015 BigField Strip. This page auto generated 18:11 UTC - 30/09/2015   Contact Us
Valid HTML 4.01 Transitional     Windows uptime: 2 Days 10 Hours 52 Minutes 38 Seconds    WD started: 07:24 28/09/15    Free memory: 1481MB     Valid CSS!